createdAt,value
2023-02-17T00:02:26.021Z,82.63
2023-02-17T00:07:31.525Z,82.66
2023-02-17T00:12:35.063Z,82.58
2023-02-17T00:17:37.517Z,82.41
2023-02-17T00:22:39.685Z,82.37
2023-02-17T00:27:41.618Z,82.37
2023-02-17T00:32:44.326Z,82.44
2023-02-17T00:37:46.152Z,82.47
2023-02-17T00:42:48.996Z,82.39
2023-02-17T00:47:50.946Z,82.26
2023-02-17T00:52:52.805Z,82.28
2023-02-17T00:57:54.964Z,82.63
2023-02-17T01:02:57.600Z,82.76
2023-02-17T01:07:59.695Z,82.82
2023-02-17T01:13:02.581Z,82.88
2023-02-17T01:18:04.597Z,83.09
2023-02-17T01:23:07.973Z,83.25
2023-02-17T01:28:21.702Z,83.43
2023-02-17T01:33:23.663Z,83.41
2023-02-17T01:38:25.711Z,83.23
2023-02-17T01:43:27.588Z,83.14
2023-02-17T01:48:31.776Z,83.28
2023-02-17T01:53:39.998Z,83.46
2023-02-17T01:58:47.054Z,83.48
2023-02-17T02:03:51.061Z,83.48
2023-02-17T02:08:59.536Z,83.42
2023-02-17T02:14:07.229Z,83.51
2023-02-17T02:19:36.265Z,83.47
2023-02-17T02:24:58.715Z,83.52
2023-02-17T02:30:31.524Z,83.50
2023-02-17T02:35:48.361Z,83.35
2023-02-17T02:41:20.691Z,83.28
2023-02-17T02:46:22.893Z,83.16
2023-02-17T02:51:49.722Z,82.98
2023-02-17T02:57:04.530Z,82.76
2023-02-17T03:02:29.622Z,82.45
2023-02-17T03:07:45.266Z,82.24
2023-02-17T03:12:49.009Z,82.08
2023-02-17T03:17:50.988Z,81.97
2023-02-17T03:22:53.192Z,81.80
2023-02-17T03:27:55.347Z,81.73
2023-02-17T03:32:57.515Z,81.78
2023-02-17T03:37:59.604Z,81.83
2023-02-17T03:43:09.130Z,81.82
2023-02-17T03:48:11.074Z,81.75
2023-02-17T03:53:12.937Z,81.70
2023-02-17T03:58:14.955Z,81.57
2023-02-17T04:03:16.798Z,81.37
2023-02-17T04:08:18.717Z,81.32
2023-02-17T04:13:20.899Z,81.29
2023-02-17T04:18:23.778Z,81.36
2023-02-17T04:23:26.369Z,81.29
2023-02-17T04:28:28.813Z,81.35
2023-02-17T04:33:31.124Z,81.38
2023-02-17T04:38:33.655Z,81.31
2023-02-17T04:43:35.705Z,81.23
2023-02-17T04:48:38.263Z,81.23
2023-02-17T04:53:40.237Z,81.18
2023-02-17T04:58:42.634Z,81.11
2023-02-17T05:03:44.828Z,81.06
2023-02-17T05:08:48.330Z,81.04
2023-02-17T05:13:50.576Z,81.01
2023-02-17T05:18:52.823Z,80.98
2023-02-17T05:23:55.006Z,80.94
2023-02-17T05:28:57.506Z,81.04
2023-02-17T05:33:59.528Z,81.02
2023-02-17T05:39:02.016Z,80.93
2023-02-17T05:44:04.060Z,80.77
2023-02-17T05:49:05.988Z,80.66
2023-02-17T05:54:08.165Z,80.46
2023-02-17T05:59:10.249Z,80.30
2023-02-17T06:04:12.201Z,80.16
2023-02-17T06:09:15.109Z,80.04
2023-02-17T06:14:16.984Z,80.03
2023-02-17T06:19:19.229Z,79.92
2023-02-17T06:24:21.061Z,79.78
2023-02-17T06:29:22.868Z,79.68
2023-02-17T06:34:25.105Z,79.53
2023-02-17T06:39:27.113Z,79.30
2023-02-17T06:44:29.264Z,79.13
2023-02-17T06:49:31.103Z,78.89
2023-02-17T06:54:32.988Z,78.66
2023-02-17T06:59:34.939Z,78.54
2023-02-17T07:04:37.009Z,78.42
2023-02-17T07:09:40.166Z,78.26
2023-02-17T07:14:42.109Z,77.88
2023-02-17T07:19:43.972Z,77.48
2023-02-17T07:24:46.049Z,76.91
2023-02-17T07:29:48.012Z,76.16
2023-02-17T07:34:53.253Z,76.03
2023-02-17T07:39:57.167Z,75.70
2023-02-17T07:44:59.148Z,75.58
2023-02-17T07:50:01.243Z,75.26
2023-02-17T07:55:03.941Z,74.87
2023-02-17T08:00:09.258Z,74.76
2023-02-17T08:05:16.077Z,74.58
2023-02-17T08:10:36.983Z,74.45
2023-02-17T08:16:30.888Z,74.33
2023-02-17T08:21:38.967Z,74.91
2023-02-17T08:26:40.907Z,75.26
2023-02-17T08:31:43.522Z,75.36
2023-02-17T08:36:45.651Z,75.34
2023-02-17T08:41:48.323Z,75.36
2023-02-17T08:46:51.847Z,75.27
2023-02-17T08:51:54.222Z,75.17
2023-02-17T08:56:59.238Z,74.96
2023-02-17T09:02:01.663Z,74.86
2023-02-17T09:07:04.132Z,74.73
2023-02-17T09:12:06.509Z,74.73
2023-02-17T09:17:08.627Z,74.84
2023-02-17T09:22:20.055Z,74.98
2023-02-17T09:27:32.813Z,75.24
2023-02-17T09:32:35.024Z,75.52
2023-02-17T09:37:37.103Z,76.34
2023-02-17T09:42:40.769Z,76.76
2023-02-17T09:48:00.051Z,76.89
2023-02-17T09:53:18.110Z,76.99
2023-02-17T09:58:42.192Z,76.90
2023-02-17T10:03:52.169Z,76.71
2023-02-17T10:09:00.646Z,76.51
2023-02-17T10:14:10.061Z,76.36
2023-02-17T10:19:25.627Z,76.10
2023-02-17T10:24:27.647Z,76.14
2023-02-17T10:30:08.185Z,76.25
2023-02-17T10:35:18.773Z,76.44
2023-02-17T10:40:25.357Z,76.40
2023-02-17T10:45:40.893Z,76.00
2023-02-17T10:50:44.545Z,75.22
2023-02-17T11:01:49.431Z,74.49
2023-02-17T11:06:55.192Z,74.22
2023-02-17T11:12:11.988Z,73.92
2023-02-17T11:17:23.674Z,73.34
2023-02-17T11:22:41.180Z,73.14
2023-02-17T11:27:51.153Z,72.83
2023-02-17T11:32:55.224Z,73.19
2023-02-17T11:38:15.811Z,73.71
2023-02-17T11:43:21.355Z,73.97
2023-02-17T11:48:43.140Z,74.01
2023-02-17T11:54:00.984Z,74.49
2023-02-17T11:59:11.975Z,74.87
2023-02-17T12:04:31.713Z,75.15
2023-02-17T12:10:43.383Z,75.44
2023-02-17T12:16:27.073Z,75.94
2023-02-17T12:21:39.322Z,76.07
2023-02-17T12:27:28.283Z,76.04
2023-02-17T12:33:17.506Z,76.11
2023-02-17T12:38:27.231Z,76.36
2023-02-17T12:43:49.232Z,76.53
2023-02-17T12:48:59.934Z,76.63
2023-02-17T12:54:32.211Z,76.61
2023-02-17T12:59:47.017Z,76.55
2023-02-17T13:05:04.577Z,76.34
2023-02-17T13:10:17.935Z,76.06
2023-02-17T13:15:35.477Z,75.87
2023-02-17T13:20:39.183Z,75.65
2023-02-17T13:25:41.878Z,75.30
2023-02-17T13:30:45.826Z,74.81
2023-02-17T13:35:49.495Z,74.72
2023-02-17T13:40:52.283Z,74.90
2023-02-17T13:46:03.057Z,74.97
2023-02-17T13:51:17.451Z,75.15
2023-02-17T13:56:37.144Z,75.07
2023-02-17T14:01:42.672Z,75.14
2023-02-17T14:06:45.705Z,75.17
2023-02-17T14:11:50.406Z,75.41
2023-02-17T14:17:02.982Z,75.52
2023-02-17T14:22:06.752Z,75.64
2023-02-17T14:27:14.171Z,76.04
2023-02-17T14:32:38.634Z,76.54
2023-02-17T14:37:42.505Z,77.01
2023-02-17T14:42:45.674Z,77.13
2023-02-17T14:47:49.267Z,77.39
2023-02-17T14:52:55.288Z,77.86
2023-02-17T14:57:57.546Z,78.33
2023-02-17T15:02:59.920Z,78.56
2023-02-17T15:08:02.277Z,78.69
2023-02-17T15:13:05.327Z,78.58
2023-02-17T15:18:08.037Z,78.61
2023-02-17T15:23:16.701Z,78.59
2023-02-17T15:28:20.595Z,78.45
2023-02-17T15:33:26.856Z,78.27
2023-02-17T15:38:28.934Z,78.32
2023-02-17T15:48:40.150Z,78.54
2023-02-17T15:53:42.626Z,78.89
2023-02-17T15:58:47.349Z,79.19
2023-02-17T16:03:49.403Z,79.43
2023-02-17T16:08:54.698Z,79.62
2023-02-17T16:13:57.287Z,79.75
2023-02-17T16:19:01.097Z,79.73
2023-02-17T16:24:03.781Z,79.60
2023-02-17T16:29:20.989Z,79.42
2023-02-17T16:34:24.107Z,79.45
2023-02-17T16:39:27.055Z,79.34
2023-02-17T16:44:29.048Z,79.21
2023-02-17T16:49:33.949Z,79.29
2023-02-17T16:54:36.059Z,79.36
2023-02-17T16:59:38.210Z,79.51
2023-02-17T17:04:40.180Z,79.60
2023-02-17T17:09:45.268Z,79.64
2023-02-17T17:14:51.215Z,79.83
2023-02-17T17:19:53.373Z,79.88
2023-02-17T17:24:55.390Z,80.11
2023-02-17T17:29:57.657Z,80.31
2023-02-17T17:35:00.090Z,80.39
2023-02-17T17:40:01.949Z,80.48
2023-02-17T17:45:04.628Z,80.42
2023-02-17T17:50:11.069Z,80.59
2023-02-17T17:55:14.842Z,81.49
2023-02-17T18:00:18.733Z,82.19
2023-02-17T18:05:23.215Z,82.87
2023-02-17T18:10:25.212Z,82.98
2023-02-17T18:15:27.522Z,83.18
2023-02-17T18:20:29.844Z,83.46
2023-02-17T18:25:32.250Z,83.57
2023-02-17T18:30:34.779Z,83.62
2023-02-17T18:35:38.665Z,83.80
2023-02-17T18:40:42.135Z,83.49
2023-02-17T18:45:48.879Z,83.28
2023-02-17T18:50:51.288Z,82.94
2023-02-17T18:55:53.181Z,82.62
2023-02-17T19:00:57.369Z,82.35
2023-02-17T19:06:11.933Z,82.09
2023-02-17T19:11:17.217Z,81.74
2023-02-17T19:16:25.650Z,81.42
2023-02-17T19:21:28.220Z,81.16
2023-02-17T19:26:30.720Z,80.96
2023-02-17T19:31:33.156Z,80.96
2023-02-17T19:36:38.617Z,80.71
2023-02-17T19:41:41.245Z,80.34
2023-02-17T19:46:43.336Z,80.14
2023-02-17T19:51:46.159Z,80.25
2023-02-17T19:56:49.607Z,80.28
2023-02-17T20:01:51.792Z,80.00
2023-02-17T20:06:54.270Z,79.81
2023-02-17T20:11:57.178Z,79.63
2023-02-17T20:17:00.739Z,79.51
2023-02-17T20:22:04.060Z,79.26
2023-02-17T20:27:06.672Z,79.11
2023-02-17T20:32:08.987Z,79.07
2023-02-17T20:37:11.560Z,78.84
2023-02-17T20:42:13.505Z,78.66
2023-02-17T20:47:15.590Z,78.55
2023-02-17T20:52:18.832Z,78.61
2023-02-17T20:57:20.793Z,78.76
2023-02-17T21:02:23.165Z,78.99
2023-02-17T21:07:25.672Z,78.93
2023-02-17T21:12:27.604Z,78.64
2023-02-17T21:17:29.535Z,78.47
2023-02-17T21:22:31.832Z,78.31
2023-02-17T21:27:34.632Z,78.21
2023-02-17T21:32:38.667Z,78.31
2023-02-17T21:37:41.356Z,78.40
2023-02-17T21:43:02.075Z,78.36
2023-02-17T21:48:04.544Z,78.36
2023-02-17T21:53:06.777Z,78.31
2023-02-17T21:58:09.093Z,78.32
2023-02-17T22:03:11.732Z,78.05
2023-02-17T22:08:16.593Z,77.81
2023-02-17T22:13:24.147Z,77.40
2023-02-17T22:18:26.761Z,77.11
2023-02-17T22:23:28.604Z,76.94
2023-02-17T22:28:30.596Z,77.02
2023-02-17T22:33:33.422Z,77.22
2023-02-17T22:38:36.139Z,77.47
2023-02-17T22:43:41.130Z,77.85
2023-02-17T22:48:52.284Z,78.08
2023-02-17T22:53:55.082Z,78.11
2023-02-17T22:59:00.789Z,78.08
2023-02-17T23:04:06.642Z,78.35
2023-02-17T23:09:13.818Z,78.64
2023-02-17T23:14:18.991Z,78.83
2023-02-17T23:19:22.416Z,78.83
2023-02-17T23:24:26.406Z,78.89
2023-02-17T23:29:30.799Z,78.95
2023-02-17T23:34:34.147Z,79.01
2023-02-17T23:39:38.174Z,78.94
2023-02-17T23:44:40.280Z,78.95
2023-02-17T23:49:42.783Z,79.02
2023-02-17T23:54:44.782Z,79.05
2023-02-17T23:59:47.106Z,79.02
